Newmilns, United Kingdom
Current Conditions -  °F | °C
As of 10:20 PM on Tuesday 25 Nov 2014 (Local Time) from EGPK Reporting Station
Broken Clouds Broken Clouds  
Wind Chill: 45°   Ceiling: 4000
Heat Index: 45°   Visibility: 6mi
Dew Point: 43°   Wind: 0mph
Humidity: 93%   Direction: NA
Pressure: 30.12"   Gusts: NA
Location:  55.61°N, 4.32°W
Report Text: EGPK 252220Z 00000KT 9999 BKN040 07/06 Q1020
Loading
Personal Weather Stations






























Interactive Weather Map New forecast layout! Learn more

10-Day Weather Forecast

Advertisements
Track Severe Weather on mobile